Time;durP1;ratioP1;P1;durP2;ratioP2;P2;SDS_P1;SDS_P2;PMS_P1;PMS_P2;Temp;Humidity;BMP_temperature;BMP_pressure;BME280_temperature;BME280_humidity;BME280_pressure;Samples;Min_cycle;Max_cycle;Signal;HPM_P1;HPM_P2
2021/01/20 00:08:24;;;;;;;17.07;12.50;;;;;;;-0.33;86.67;98633.81;492765;1129;114873;-60
2021/01/20 00:18:28;;;;;;;17.30;13.40;;;;;;;-0.34;86.23;98621.81;492794;1127;114880;-60
2021/01/20 00:28:31;;;;;;;17.50;13.17;;;;;;;-0.37;86.87;98634.83;492518;1128;114327;-61
2021/01/20 00:38:35;;;;;;;20.90;13.23;;;;;;;-0.37;86.52;98615.91;492336;1129;114818;-59
2021/01/20 00:48:39;;;;;;;21.37;13.93;;;;;;;-0.37;86.75;98629.66;493048;1128;114903;-60
2021/01/20 00:58:43;;;;;;;16.70;11.77;;;;;;;-0.38;86.33;98624.55;493403;1129;115006;-60
2021/01/20 01:08:47;;;;;;;17.03;12.40;;;;;;;-0.38;86.74;98615.09;492978;1128;114904;-61
2021/01/20 01:18:51;;;;;;;15.33;11.97;;;;;;;-0.37;86.61;98611.61;493188;1127;114656;-60
2021/01/20 01:28:55;;;;;;;17.70;11.60;;;;;;;-0.35;87.15;98612.39;492726;1128;114879;-60
2021/01/20 01:38:59;;;;;;;13.97;11.53;;;;;;;-0.31;86.81;98605.39;492455;1129;115459;-60
2021/01/20 01:49:04;;;;;;;14.63;10.43;;;;;;;-0.31;86.81;98603.64;492636;1128;114305;-58
2021/01/20 01:59:08;;;;;;;14.00;11.80;;;;;;;-0.31;87.29;98600.23;492407;1128;115139;-60
2021/01/20 02:09:12;;;;;;;17.53;12.97;;;;;;;-0.31;87.58;98605.39;493051;1128;114880;-60
2021/01/20 02:19:22;;;;;;;14.00;11.03;;;;;;;-0.31;87.59;98600.23;492987;1129;115596;-60
2021/01/20 02:29:30;;;;;;;11.30;9.03;;;;;;;-0.33;87.67;98613.17;492686;1129;114319;-60
2021/01/20 02:39:35;;;;;;;13.50;10.30;;;;;;;-0.38;88.08;98620.25;492512;1127;114832;-60
2021/01/20 02:49:39;;;;;;;11.97;9.53;;;;;;;-0.39;87.11;98615.98;492641;1129;114406;-60
2021/01/20 02:59:47;;;;;;;11.83;8.83;;;;;;;-0.37;86.78;98619.34;492545;1129;114294;-61
2021/01/20 03:09:52;;;;;;;12.43;10.43;;;;;;;-0.36;87.26;98615.02;492414;1130;114608;-58
2021/01/20 03:19:56;;;;;;;12.73;10.70;;;;;;;-0.39;87.68;98608.25;492458;1128;114349;-60
2021/01/20 03:29:59;;;;;;;11.77;9.73;;;;;;;-0.34;87.56;98606.33;492428;1129;115438;-59
2021/01/20 03:40:05;;;;;;;13.87;11.73;;;;;;;-0.34;88.13;98614.08;492791;1128;114151;-59
2021/01/20 03:50:10;;;;;;;21.95;13.70;;;;;;;-0.33;87.18;98612.34;492771;1128;114932;-61
2021/01/20 04:00:17;;;;;;;30.07;18.97;;;;;;;-0.28;87.50;98610.44;492365;1128;114649;-60
2021/01/20 04:10:21;;;;;;;29.67;18.17;;;;;;;-0.24;88.56;98599.09;492754;1129;114394;-60
2021/01/20 04:20:25;;;;;;;13.03;10.13;;;;;;;-0.19;87.78;98602.38;492812;1128;114436;-59
2021/01/20 04:30:29;;;;;;;16.43;12.80;;;;;;;-0.11;87.73;98607.25;492358;1128;114382;-60
2021/01/20 04:40:33;;;;;;;14.85;11.95;;;;;;;-0.04;88.30;98600.13;492588;1129;114383;-59
2021/01/20 04:50:40;;;;;;;22.13;14.43;;;;;;;0.03;88.21;98608.48;493028;1129;114325;-60
2021/01/20 05:00:44;;;;;;;14.63;11.17;;;;;;;0.08;88.71;98598.84;492198;1129;114250;-60
2021/01/20 05:10:50;;;;;;;13.00;10.05;;;;;;;0.15;88.51;98607.20;492844;1129;114150;-59
2021/01/20 05:20:54;;;;;;;12.37;10.40;;;;;;;0.20;88.08;98608.72;493765;1129;114156;-59
2021/01/20 05:30:59;;;;;;;10.97;8.27;;;;;;;0.24;89.01;98612.03;493154;1129;115078;-59
2021/01/20 05:41:17;;;;;;;11.37;9.00;;;;;;;0.35;88.96;98614.20;493350;1129;114257;-59
2021/01/20 05:51:21;;;;;;;12.17;10.87;;;;;;;0.34;88.60;98628.84;493172;1128;114418;-60
2021/01/20 06:01:26;;;;;;;13.93;10.50;;;;;;;0.40;89.42;98635.51;493711;1129;114453;-60
2021/01/20 06:11:30;;;;;;;14.97;9.83;;;;;;;0.41;89.26;98640.62;493411;1129;114163;-60
2021/01/20 06:21:35;;;;;;;16.47;11.50;;;;;;;0.45;89.65;98643.94;493387;1129;113983;-60
2021/01/20 06:31:44;;;;;;;15.80;13.17;;;;;;;0.49;88.95;98652.42;493099;1129;114149;-59
2021/01/20 06:41:48;;;;;;;17.45;11.95;;;;;;;0.54;89.15;98659.10;492933;1128;114143;-68
2021/01/20 06:52:08;;;;;;;18.55;14.90;;;;;;;0.63;88.76;98659.63;492922;1128;114486;-67
2021/01/20 07:02:16;;;;;;;17.27;14.07;;;;;;;0.71;89.89;98674.86;492874;1128;114212;-64
2021/01/20 07:12:21;;;;;;;54.87;15.67;;;;;;;0.75;89.18;98679.00;492302;1129;114237;-63
2021/01/20 07:22:27;;;;;;;19.70;12.90;;;;;;;0.81;89.30;98683.95;493113;1128;114509;-60
2021/01/20 07:32:31;;;;;;;14.93;12.90;;;;;;;0.91;89.00;98690.42;493044;1129;114145;-62
2021/01/20 07:42:39;;;;;;;17.77;13.40;;;;;;;0.94;89.54;98690.32;492921;1126;114005;-62
2021/01/20 07:52:43;;;;;;;16.52;14.33;;;;;;;1.05;89.50;98687.30;484145;1128;10001815;-62
2021/01/20 08:02:48;;;;;;;18.63;15.17;;;;;;;1.18;89.53;98697.16;492215;1129;114566;-59
2021/01/20 08:12:53;;;;;;;15.53;12.43;;;;;;;1.37;89.48;98705.87;492327;1128;114850;-64
2021/01/20 08:22:57;;;;;;;19.83;16.03;;;;;;;1.59;89.05;98715.34;492222;1129;114155;-61
2021/01/20 08:33:02;;;;;;;18.57;15.13;;;;;;;1.78;88.69;98710.23;492050;1128;114781;-59
2021/01/20 08:43:06;;;;;;;21.20;15.90;;;;;;;2.09;88.07;98708.08;492519;1128;114802;-60
2021/01/20 08:53:28;;;;;;;18.60;14.00;;;;;;;2.34;88.06;98718.22;492114;1129;114908;-61
2021/01/20 09:03:33;;;;;;;17.47;12.90;;;;;;;2.61;87.86;98727.42;509893;1130;114630;-60
2021/01/20 09:13:37;;;;;;;14.53;12.47;;;;;;;3.22;87.34;98709.91;500596;1128;114862;-59
2021/01/20 09:23:41;;;;;;;19.63;14.50;;;;;;;4.07;85.95;98699.67;500310;1129;114311;-60
2021/01/20 09:33:45;;;;;;;16.63;12.23;;;;;;;4.76;85.36;98692.57;493242;1128;115144;-61
2021/01/20 09:43:51;;;;;;;13.17;11.40;;;;;;;5.28;84.55;98688.01;493064;1128;114772;-60
2021/01/20 09:53:55;;;;;;;14.63;12.03;;;;;;;6.16;83.36;98683.84;493280;1128;115389;-61
2021/01/20 10:03:59;;;;;;;13.95;10.85;;;;;;;6.02;82.38;98676.84;493099;1128;114763;-62
2021/01/20 10:14:03;;;;;;;18.20;12.60;;;;;;;5.99;82.18;98664.80;493088;1128;114857;-61
2021/01/20 10:24:09;;;;;;;12.53;10.57;;;;;;;5.81;81.69;98666.73;493501;1129;115277;-64
2021/01/20 10:34:13;;;;;;;13.57;10.27;;;;;;;5.57;81.76;98662.05;492891;1129;116801;-62
2021/01/20 10:44:18;;;;;;;16.95;11.90;;;;;;;5.49;81.16;98653.01;493348;1129;114661;-66
2021/01/20 10:54:24;;;;;;;16.87;13.07;;;;;;;5.57;81.16;98643.81;493075;1129;114161;-65
2021/01/20 11:04:28;;;;;;;13.47;10.83;;;;;;;5.46;80.72;98641.00;492868;1128;115051;-66
2021/01/20 11:14:32;;;;;;;11.40;10.20;;;;;;;5.13;80.76;98634.20;493448;1129;114170;-66
2021/01/20 11:25:16;;;;;;;11.57;9.37;;;;;;;5.01;80.68;98620.96;493493;1128;114396;-69
2021/01/20 11:35:20;;;;;;;15.00;11.67;;;;;;;5.07;80.27;98600.73;493325;1128;115407;-66
2021/01/20 11:45:25;;;;;;;17.50;11.97;;;;;;;5.05;80.52;98583.45;493074;1128;114840;-66
2021/01/20 11:55:29;;;;;;;18.40;13.47;;;;;;;5.13;80.56;98588.22;492977;1128;114296;-60
2021/01/20 12:05:33;;;;;;;12.87;9.83;;;;;;;5.39;80.31;98575.44;493816;1129;114313;-63
2021/01/20 12:15:38;;;;;;;15.53;10.57;;;;;;;5.44;79.16;98581.22;492909;1128;114808;-64
2021/01/20 12:25:42;;;;;;;14.10;10.30;;;;;;;5.04;79.73;98589.59;492770;1125;115155;-61
2021/01/20 12:35:46;;;;;;;14.03;10.07;;;;;;;4.90;79.00;98563.50;510657;1129;114307;-62
2021/01/20 12:45:50;;;;;;;16.27;11.47;;;;;;;4.83;79.58;98568.22;494910;1129;114215;-62
2021/01/20 12:55:54;;;;;;;17.17;12.00;;;;;;;4.86;79.68;98562.86;493692;1129;114719;-62
2021/01/20 13:05:58;;;;;;;14.43;10.37;;;;;;;4.74;79.80;98572.19;492990;1129;115269;-62
2021/01/20 13:16:03;;;;;;;17.40;11.13;;;;;;;4.96;79.87;98576.17;493768;1129;116002;-63
2021/01/20 13:26:07;;;;;;;17.63;10.97;;;;;;;5.03;79.69;98572.30;493279;1128;115256;-62
2021/01/20 13:36:12;;;;;;;14.27;10.40;;;;;;;4.93;79.47;98558.14;492928;1128;115000;-62
2021/01/20 13:46:16;;;;;;;14.57;10.63;;;;;;;4.77;78.93;98555.58;493475;1128;114935;-62
2021/01/20 13:56:20;;;;;;;17.10;12.95;;;;;;;4.60;79.31;98567.75;493874;1127;115009;-62
2021/01/20 14:06:24;;;;;;;30.07;16.77;;;;;;;4.46;79.32;98573.74;492914;1129;114653;-62
2021/01/20 14:16:30;;;;;;;45.13;25.27;;;;;;;4.29;79.07;98579.02;493540;1129;114764;-62
2021/01/20 14:26:37;;;;;;;26.20;14.03;;;;;;;4.17;79.03;98588.33;493395;1129;114758;-62
2021/01/20 14:36:41;;;;;;;41.20;19.35;;;;;;;4.03;79.10;98583.86;493505;1129;114520;-61
2021/01/20 14:46:46;;;;;;;23.30;15.00;;;;;;;3.82;79.20;98585.84;493495;1129;114805;-62
2021/01/20 14:56:51;;;;;;;34.00;19.73;;;;;;;3.68;79.96;98581.36;492846;1129;114775;-62
2021/01/20 15:06:55;;;;;;;39.47;19.00;;;;;;;3.51;79.86;98585.64;493476;1129;114747;-64
2021/01/20 15:16:59;;;;;;;31.53;18.80;;;;;;;3.31;79.91;98604.83;493109;1128;114472;-64
2021/01/20 15:27:03;;;;;;;35.97;20.53;;;;;;;3.17;80.12;98600.31;492674;1128;114324;-61
2021/01/20 15:37:07;;;;;;;36.80;21.70;;;;;;;3.11;80.58;98617.02;493286;1128;114686;-67
2021/01/20 15:47:11;;;;;;;34.67;19.90;;;;;;;3.00;80.36;98616.70;492371;1129;114130;-64
2021/01/20 15:57:15;;;;;;;34.80;18.47;;;;;;;2.71;80.45;98614.59;492775;1129;114166;-64
2021/01/20 16:07:19;;;;;;;21.77;14.87;;;;;;;2.49;80.75;98617.38;493196;1128;114106;-64
2021/01/20 16:17:23;;;;;;;28.00;15.03;;;;;;;2.30;81.07;98622.56;492566;1129;114143;-63
2021/01/20 16:27:27;;;;;;;25.50;14.57;;;;;;;2.12;81.07;98614.70;492653;1128;114988;-69
2021/01/20 16:37:31;;;;;;;26.90;16.97;;;;;;;2.01;81.29;98615.20;492557;1128;114236;-67
2021/01/20 16:47:35;;;;;;;29.17;18.33;;;;;;;1.92;81.35;98616.45;492756;1129;114029;-65
2021/01/20 16:57:39;;;;;;;18.17;13.40;;;;;;;1.84;81.60;98625.44;493259;1129;114130;-64
2021/01/20 17:07:43;;;;;;;30.57;17.50;;;;;;;1.77;81.45;98622.28;492443;1129;114111;-66
2021/01/20 17:17:47;;;;;;;22.47;12.60;;;;;;;1.70;81.25;98621.70;492898;1128;114360;-65
2021/01/20 17:27:52;;;;;;;23.17;13.97;;;;;;;1.59;81.42;98619.59;493251;1128;114102;-67
2021/01/20 17:37:56;;;;;;;29.73;16.93;;;;;;;1.48;82.03;98609.69;492908;1129;114636;-65
2021/01/20 17:48:00;;;;;;;25.23;15.23;;;;;;;1.44;82.15;98604.70;493307;1128;114605;-65
2021/01/20 17:58:04;;;;;;;23.90;13.70;;;;;;;1.42;81.29;98609.97;484674;1128;10001897;-64
2021/01/20 18:08:08;;;;;;;23.20;13.50;;;;;;;1.37;82.01;98611.89;492363;1129;115438;-66
2021/01/20 18:18:12;;;;;;;21.13;11.80;;;;;;;1.42;81.54;98609.11;492760;1128;114497;-66
2021/01/20 18:28:16;;;;;;;25.10;15.13;;;;;;;1.38;81.03;98601.48;493269;1129;115339;-64
2021/01/20 18:38:20;;;;;;;24.13;14.17;;;;;;;1.41;80.96;98597.94;492827;1129;115526;-66
2021/01/20 18:48:25;;;;;;;23.67;13.37;;;;;;;1.39;81.43;98599.76;491954;1128;114138;-66
2021/01/20 18:58:32;;;;;;;22.07;14.23;;;;;;;1.40;81.58;98591.09;492243;1129;114229;-66
2021/01/20 19:08:36;;;;;;;38.55;19.82;;;;;;;1.30;81.56;98597.55;492285;1128;114467;-67
2021/01/20 19:18:40;;;;;;;69.17;25.80;;;;;;;1.23;81.58;98599.55;492358;1129;114109;-62
2021/01/20 19:28:44;;;;;;;30.87;18.23;;;;;;;1.10;81.36;98589.72;492463;1128;114146;-62
2021/01/20 19:38:48;;;;;;;36.70;18.10;;;;;;;0.97;81.61;98593.69;492903;1128;114636;-68
2021/01/20 19:48:52;;;;;;;23.30;13.40;;;;;;;0.94;81.86;98588.65;492056;1129;114600;-65
2021/01/20 19:58:56;;;;;;;32.30;17.95;;;;;;;0.89;82.04;98580.25;493009;1129;115287;-64
2021/01/20 20:09:01;;;;;;;28.73;15.50;;;;;;;0.85;82.20;98584.70;492614;1128;114784;-65
2021/01/20 20:19:05;;;;;;;21.90;12.90;;;;;;;0.83;82.28;98573.59;492592;1128;114858;-67
2021/01/20 20:29:09;;;;;;;27.70;16.13;;;;;;;0.86;82.76;98582.94;493019;1129;115059;-69
2021/01/20 20:39:21;;;;;;;30.47;16.57;;;;;;;0.79;82.50;98569.43;492806;1129;116387;-67
2021/01/20 20:49:25;;;;;;;36.40;22.57;;;;;;;0.68;82.13;98569.88;492193;1128;114622;-66
2021/01/20 20:59:29;;;;;;;38.23;19.27;;;;;;;0.58;82.65;98566.83;492461;1129;114167;-67
2021/01/20 21:09:35;;;;;;;32.70;17.13;;;;;;;0.60;82.64;98564.16;492637;1129;114531;-70
2021/01/20 21:19:39;;;;;;;31.30;19.30;;;;;;;0.56;82.85;98571.19;492508;1129;115202;-67
2021/01/20 21:29:44;;;;;;;54.37;27.93;;;;;;;0.39;82.66;98571.84;492808;1128;114802;-68
2021/01/20 21:39:48;;;;;;;36.77;19.60;;;;;;;0.32;82.97;98583.33;492156;1129;115775;-67
2021/01/20 21:49:52;;;;;;;32.20;18.57;;;;;;;0.30;82.78;98577.39;497911;1128;114027;-68
2021/01/20 21:59:56;;;;;;;33.63;18.23;;;;;;;0.28;82.90;98577.44;492645;1128;114206;-68
2021/01/20 22:10:01;;;;;;;32.20;18.00;;;;;;;0.25;83.40;98577.56;492938;1129;114414;-68
2021/01/20 22:20:08;;;;;;;42.07;22.43;;;;;;;0.21;82.61;98575.97;493041;1128;114439;-69
2021/01/20 22:30:15;;;;;;;44.57;23.90;;;;;;;0.16;82.91;98568.40;493014;1128;114546;-68
2021/01/20 22:40:18;;;;;;;38.47;22.93;;;;;;;0.17;83.33;98571.84;492996;1128;114226;-68
2021/01/20 22:50:22;;;;;;;40.50;22.60;;;;;;;0.15;83.41;98565.89;492229;1128;114485;-68
2021/01/20 23:00:28;;;;;;;29.50;17.40;;;;;;;0.18;83.67;98558.88;492434;1129;114135;-69
2021/01/20 23:10:32;;;;;;;29.55;16.90;;;;;;;0.26;84.14;98551.66;492822;1129;114349;-68
2021/01/20 23:20:36;;;;;;;26.10;15.30;;;;;;;0.32;83.89;98544.59;492467;1128;114894;-67
2021/01/20 23:30:42;;;;;;;24.63;13.30;;;;;;;0.33;83.83;98534.19;492434;1128;114258;-69
2021/01/20 23:40:46;;;;;;;22.13;13.40;;;;;;;0.36;83.50;98531.50;492837;1128;114180;-68
2021/01/20 23:50:50;;;;;;;21.30;12.47;;;;;;;0.39;83.77;98526.21;492152;1129;114230;-68
